createdAt,value
2022-09-23T00:01:33.837Z,99.90
2022-09-23T00:04:03.005Z,99.90
2022-09-23T00:06:35.073Z,99.90
2022-09-23T00:09:03.316Z,99.90
2022-09-23T00:11:32.941Z,99.90
2022-09-23T00:14:01.749Z,99.90
2022-09-23T00:16:34.255Z,99.90
2022-09-23T00:19:03.231Z,99.90
2022-09-23T00:21:31.803Z,99.90
2022-09-23T00:24:00.011Z,99.90
2022-09-23T00:26:28.727Z,99.90
2022-09-23T00:28:58.455Z,99.90
2022-09-23T00:31:28.032Z,99.90
2022-09-23T00:33:57.071Z,99.90
2022-09-23T00:36:25.814Z,99.90
2022-09-23T00:38:55.019Z,99.90
2022-09-23T00:41:23.502Z,99.90
2022-09-23T00:43:54.026Z,99.90
2022-09-23T00:46:27.651Z,99.90
2022-09-23T00:49:01.353Z,99.90
2022-09-23T00:51:34.533Z,99.90
2022-09-23T00:54:03.835Z,99.90
2022-09-23T00:56:34.152Z,99.90
2022-09-23T00:59:03.461Z,99.90
2022-09-23T01:01:33.178Z,99.90
2022-09-23T01:04:01.432Z,99.90
2022-09-23T01:06:29.739Z,99.90
2022-09-23T01:08:57.942Z,99.90
2022-09-23T01:11:44.279Z,99.90
2022-09-23T01:14:31.303Z,99.90
2022-09-23T01:17:07.903Z,99.90
2022-09-23T01:20:06.754Z,99.90
2022-09-23T01:22:43.232Z,99.90
2022-09-23T01:25:31.612Z,99.90
2022-09-23T01:28:18.981Z,99.90
2022-09-23T01:30:58.753Z,99.90
2022-09-23T01:33:32.852Z,99.90
2022-09-23T01:36:10.203Z,99.90
2022-09-23T01:38:47.345Z,99.90
2022-09-23T01:41:27.649Z,99.90
2022-09-23T01:44:02.106Z,99.90
2022-09-23T01:46:35.236Z,99.90
2022-09-23T01:49:09.835Z,99.90
2022-09-23T01:51:42.728Z,99.90
2022-09-23T01:54:16.488Z,99.90
2022-09-23T01:56:52.429Z,99.90
2022-09-23T01:59:24.663Z,99.90
2022-09-23T02:02:00.294Z,99.90
2022-09-23T02:04:34.961Z,99.90
2022-09-23T02:07:10.110Z,99.90
2022-09-23T02:09:45.012Z,99.90
2022-09-23T02:12:17.545Z,99.90
2022-09-23T02:14:50.405Z,99.90
2022-09-23T02:17:26.547Z,99.90
2022-09-23T02:20:08.791Z,99.90
2022-09-23T02:22:42.437Z,99.90
2022-09-23T02:25:13.154Z,99.90
2022-09-23T02:28:10.225Z,99.90
2022-09-23T02:30:49.039Z,99.90
2022-09-23T02:33:23.457Z,99.90
2022-09-23T02:35:57.503Z,99.90
2022-09-23T02:38:35.505Z,99.90
2022-09-23T02:41:32.392Z,99.90
2022-09-23T02:44:21.908Z,99.90
2022-09-23T02:46:52.353Z,99.90
2022-09-23T02:49:24.353Z,99.90
2022-09-23T02:51:54.551Z,99.90
2022-09-23T02:54:26.996Z,99.90
2022-09-23T02:56:57.456Z,99.90
2022-09-23T02:59:26.377Z,99.90
2022-09-23T03:02:20.701Z,99.90
2022-09-23T03:05:23.955Z,99.90
2022-09-23T03:08:07.949Z,99.90
2022-09-23T03:10:46.234Z,99.90
2022-09-23T03:13:19.977Z,99.90
2022-09-23T03:15:57.311Z,99.90
2022-09-23T03:18:34.864Z,99.90
2022-09-23T03:21:09.013Z,99.90
2022-09-23T03:23:40.951Z,99.90
2022-09-23T03:26:13.454Z,99.90
2022-09-23T03:28:44.952Z,99.90
2022-09-23T03:31:14.865Z,99.90
2022-09-23T03:33:48.853Z,99.90
2022-09-23T03:36:41.047Z,99.90
2022-09-23T03:39:13.825Z,99.90
2022-09-23T03:41:48.447Z,99.90
2022-09-23T03:44:20.624Z,99.90
2022-09-23T03:46:50.691Z,99.90
2022-09-23T03:49:20.829Z,99.90
2022-09-23T03:51:50.417Z,99.90
2022-09-23T03:54:19.727Z,99.90
2022-09-23T03:56:48.793Z,99.90
2022-09-23T03:59:17.502Z,99.90
2022-09-23T04:01:46.261Z,99.90
2022-09-23T04:04:14.553Z,99.90
2022-09-23T04:06:42.788Z,99.90
2022-09-23T04:09:12.470Z,99.90
2022-09-23T04:11:40.692Z,99.90
2022-09-23T04:14:08.972Z,99.90
2022-09-23T04:16:37.330Z,99.90
2022-09-23T04:19:09.649Z,99.90
2022-09-23T04:21:40.352Z,99.90
2022-09-23T04:24:09.904Z,99.90
2022-09-23T04:26:40.583Z,99.90
2022-09-23T04:29:09.884Z,99.90
2022-09-23T04:31:38.299Z,99.90
2022-09-23T04:34:06.983Z,99.90
2022-09-23T04:36:35.463Z,99.90
2022-09-23T04:39:04.226Z,99.90
2022-09-23T04:41:32.472Z,99.90
2022-09-23T04:44:02.531Z,99.90
2022-09-23T04:46:31.191Z,99.90
2022-09-23T04:48:59.515Z,99.90
2022-09-23T04:51:28.848Z,99.90
2022-09-23T04:53:57.371Z,99.90
2022-09-23T04:56:27.445Z,99.90
2022-09-23T04:58:57.287Z,99.90
2022-09-23T05:01:28.911Z,99.90
2022-09-23T05:04:01.587Z,99.90
2022-09-23T05:06:31.481Z,99.90
2022-09-23T05:09:00.530Z,99.90
2022-09-23T05:11:31.381Z,99.90
2022-09-23T05:14:00.347Z,99.90
2022-09-23T05:16:30.173Z,99.90
2022-09-23T05:18:58.668Z,99.90
2022-09-23T05:21:28.551Z,99.90
2022-09-23T05:23:59.124Z,99.90
2022-09-23T05:26:29.140Z,99.90
2022-09-23T05:28:57.464Z,99.90
2022-09-23T05:31:27.756Z,99.90
2022-09-23T05:33:59.308Z,99.90
2022-09-23T05:36:28.915Z,99.90
2022-09-23T05:38:58.618Z,99.90
2022-09-23T05:41:27.613Z,99.90
2022-09-23T05:43:57.115Z,99.90
2022-09-23T05:46:27.968Z,99.90
2022-09-23T05:49:02.539Z,99.90
2022-09-23T05:51:31.866Z,99.90
2022-09-23T05:54:02.995Z,99.90
2022-09-23T05:56:32.199Z,99.90
2022-09-23T05:59:02.222Z,99.90
2022-09-23T06:01:34.238Z,99.90
2022-09-23T06:04:06.742Z,99.90
2022-09-23T06:06:38.129Z,99.90
2022-09-23T06:09:07.530Z,99.90
2022-09-23T06:11:37.033Z,99.90
2022-09-23T06:14:05.845Z,99.90
2022-09-23T06:16:36.172Z,99.90
2022-09-23T06:19:07.020Z,99.90
2022-09-23T06:21:37.455Z,99.90
2022-09-23T06:24:06.599Z,99.90
2022-09-23T06:26:35.572Z,99.90
2022-09-23T06:29:04.791Z,99.90
2022-09-23T06:31:33.310Z,99.90
2022-09-23T06:34:10.792Z,99.90
2022-09-23T06:36:46.874Z,99.90
2022-09-23T06:39:16.079Z,99.90
2022-09-23T06:41:44.758Z,99.90
2022-09-23T06:44:12.996Z,99.90
2022-09-23T06:46:41.638Z,99.90
2022-09-23T06:49:10.651Z,99.90
2022-09-23T06:51:39.976Z,99.90
2022-09-23T06:54:11.185Z,99.90
2022-09-23T06:56:40.046Z,99.90
2022-09-23T06:59:10.510Z,99.90
2022-09-23T07:01:38.798Z,99.90
2022-09-23T07:04:08.104Z,99.90
2022-09-23T07:06:36.434Z,99.90
2022-09-23T07:09:05.016Z,99.90
2022-09-23T07:11:34.751Z,99.90
2022-09-23T07:14:03.162Z,99.90
2022-09-23T07:16:44.077Z,99.90
2022-09-23T07:19:12.358Z,99.90
2022-09-23T07:21:40.603Z,99.90
2022-09-23T07:24:09.040Z,99.90
2022-09-23T07:26:43.488Z,99.90
2022-09-23T07:29:15.232Z,99.90
2022-09-23T07:31:44.364Z,99.90
2022-09-23T07:34:12.792Z,99.90
2022-09-23T07:36:41.690Z,99.90
2022-09-23T07:39:11.916Z,99.90
2022-09-23T07:41:44.609Z,99.90
2022-09-23T07:44:13.455Z,99.90
2022-09-23T07:46:41.716Z,99.90
2022-09-23T07:49:10.620Z,99.90
2022-09-23T07:51:40.169Z,99.90
2022-09-23T07:54:10.732Z,99.90
2022-09-23T07:56:48.240Z,99.90
2022-09-23T07:59:43.212Z,99.90
2022-09-23T08:02:15.538Z,99.90
2022-09-23T08:04:44.190Z,99.90
2022-09-23T08:07:14.594Z,99.90
2022-09-23T08:09:44.390Z,99.90
2022-09-23T08:12:17.045Z,99.90
2022-09-23T08:14:45.663Z,99.90
2022-09-23T08:17:14.391Z,99.90
2022-09-23T08:19:42.687Z,99.90
2022-09-23T08:22:12.237Z,99.90
2022-09-23T08:24:40.475Z,99.90
2022-09-23T08:27:09.980Z,99.90
2022-09-23T08:29:39.610Z,99.90
2022-09-23T08:32:07.915Z,99.90
2022-09-23T08:34:41.015Z,99.90
2022-09-23T08:37:34.079Z,99.90
2022-09-23T08:40:02.742Z,99.90
2022-09-23T08:42:34.904Z,99.90
2022-09-23T08:45:08.778Z,99.90
2022-09-23T08:47:45.071Z,99.90
2022-09-23T08:50:19.116Z,99.90
2022-09-23T08:53:17.265Z,99.90
2022-09-23T08:55:49.371Z,99.90
2022-09-23T08:58:35.191Z,99.90
2022-09-23T09:01:14.018Z,99.90
2022-09-23T09:03:47.459Z,99.90
2022-09-23T09:06:21.246Z,99.90
2022-09-23T09:08:55.627Z,99.90
2022-09-23T09:11:28.920Z,99.90
2022-09-23T09:14:06.623Z,99.90
2022-09-23T09:16:59.373Z,99.90
2022-09-23T09:19:47.304Z,99.90
2022-09-23T09:22:21.295Z,99.90
2022-09-23T09:24:51.551Z,99.90
2022-09-23T09:27:20.263Z,99.90
2022-09-23T09:29:53.979Z,99.90
2022-09-23T09:32:36.466Z,99.90
2022-09-23T09:35:10.526Z,99.90
2022-09-23T09:37:46.825Z,99.90
2022-09-23T09:40:17.659Z,99.90
2022-09-23T09:42:50.022Z,99.90
2022-09-23T09:45:27.296Z,98.30
2022-09-23T09:48:04.164Z,99.90
2022-09-23T09:50:44.460Z,96.60
2022-09-23T09:53:35.652Z,96.40
2022-09-23T09:56:06.592Z,98.60
2022-09-23T09:58:46.288Z,98.70
2022-09-23T10:01:25.615Z,99.20
2022-09-23T10:03:59.499Z,97.50
2022-09-23T10:06:29.634Z,97.40
2022-09-23T10:09:13.906Z,96.00
2022-09-23T10:11:43.069Z,96.90
2022-09-23T10:14:18.660Z,94.70
2022-09-23T10:16:48.921Z,93.90
2022-09-23T10:19:29.042Z,91.60
2022-09-23T10:22:00.274Z,93.20
2022-09-23T10:24:31.523Z,90.00
2022-09-23T10:27:03.128Z,89.70
2022-09-23T10:29:32.995Z,90.00
2022-09-23T10:32:26.504Z,90.30
2022-09-23T10:34:59.585Z,90.30
2022-09-23T10:37:54.064Z,86.00
2022-09-23T10:41:00.238Z,85.40
2022-09-23T10:46:54.391Z,79.40
2022-09-23T10:50:00.482Z,78.80
2022-09-23T10:52:56.102Z,78.40
2022-09-23T10:55:44.245Z,80.80
2022-09-23T10:58:42.609Z,81.00
2022-09-23T11:01:27.719Z,80.80
2022-09-23T11:04:24.877Z,79.30
2022-09-23T11:07:07.428Z,75.60
2022-09-23T11:09:49.169Z,79.00
2022-09-23T11:12:31.254Z,78.40
2022-09-23T11:15:21.260Z,79.60
2022-09-23T11:18:11.735Z,79.50
2022-09-23T11:20:52.669Z,79.90
2022-09-23T11:23:48.389Z,75.90
2022-09-23T11:26:33.167Z,74.30
2022-09-23T11:29:24.381Z,76.20
2022-09-23T11:32:00.424Z,73.20
2022-09-23T11:34:59.319Z,74.50
2022-09-23T11:37:31.467Z,73.70
2022-09-23T11:40:06.131Z,73.80
2022-09-23T11:42:37.615Z,74.20
2022-09-23T11:45:32.585Z,73.10
2022-09-23T11:48:05.858Z,72.90
2022-09-23T11:50:39.102Z,74.10
2022-09-23T11:53:14.466Z,72.00
2022-09-23T11:55:57.610Z,71.40
2022-09-23T11:59:11.581Z,70.90
2022-09-23T12:01:46.430Z,67.90
2022-09-23T12:04:24.350Z,67.30
2022-09-23T12:07:42.467Z,67.90
2022-09-23T12:10:17.839Z,67.80
2022-09-23T12:12:57.051Z,68.50
2022-09-23T12:15:41.263Z,67.40
2022-09-23T12:18:35.988Z,65.70
2022-09-23T12:21:49.398Z,69.70
2022-09-23T12:24:31.965Z,71.00
2022-09-23T12:27:06.141Z,73.60
2022-09-23T12:29:38.035Z,72.70
2022-09-23T12:32:10.078Z,70.30
2022-09-23T12:34:44.157Z,70.40
2022-09-23T12:37:12.419Z,69.60
2022-09-23T12:39:40.971Z,68.40
2022-09-23T12:42:18.351Z,65.90
2022-09-23T12:44:49.625Z,67.00
2022-09-23T12:47:40.388Z,74.70
2022-09-23T12:50:45.745Z,77.10
2022-09-23T12:53:54.254Z,76.60
2022-09-23T12:56:59.087Z,79.00
2022-09-23T12:59:29.504Z,76.30
2022-09-23T13:02:31.047Z,75.40
2022-09-23T13:05:28.876Z,75.50
2022-09-23T13:08:03.615Z,78.60
2022-09-23T13:10:43.200Z,78.10
2022-09-23T13:13:22.044Z,78.50
2022-09-23T13:15:50.604Z,80.10
2022-09-23T13:18:55.812Z,79.00
2022-09-23T13:22:01.164Z,79.00
2022-09-23T13:24:44.316Z,79.80
2022-09-23T13:27:23.076Z,74.30
2022-09-23T13:29:56.669Z,74.40
2022-09-23T13:32:31.777Z,75.60
2022-09-23T13:35:04.666Z,77.70
2022-09-23T13:37:42.773Z,77.60
2022-09-23T13:40:20.631Z,76.70
2022-09-23T13:42:52.990Z,75.20
2022-09-23T13:45:46.851Z,74.20
2022-09-23T13:48:16.432Z,75.00
2022-09-23T13:50:49.436Z,77.60
2022-09-23T13:53:26.167Z,75.80
2022-09-23T13:56:19.306Z,74.30
2022-09-23T13:58:48.083Z,73.70
2022-09-23T14:01:23.689Z,70.40
2022-09-23T14:03:52.454Z,72.20
2022-09-23T14:06:22.132Z,71.90
2022-09-23T14:08:51.760Z,71.50
2022-09-23T14:11:22.604Z,73.20
2022-09-23T14:13:55.003Z,72.50
2022-09-23T14:16:26.807Z,72.40
2022-09-23T14:18:59.552Z,72.80
2022-09-23T14:21:35.135Z,73.20
2022-09-23T14:24:22.297Z,69.80
2022-09-23T14:26:53.081Z,71.50
2022-09-23T14:29:24.558Z,67.10
2022-09-23T14:31:58.382Z,65.90
2022-09-23T14:34:48.194Z,68.30
2022-09-23T14:37:47.903Z,67.80
2022-09-23T14:40:18.981Z,66.70
2022-09-23T14:42:53.215Z,66.50
2022-09-23T14:45:25.613Z,67.80
2022-09-23T14:47:58.857Z,67.90
2022-09-23T14:50:47.215Z,68.00
2022-09-23T14:53:37.231Z,69.40
2022-09-23T14:56:21.256Z,71.30
2022-09-23T14:58:53.322Z,74.40
2022-09-23T15:01:42.655Z,74.30
2022-09-23T15:04:35.479Z,76.20
2022-09-23T15:07:09.523Z,79.30
2022-09-23T15:09:41.102Z,82.00
2022-09-23T15:12:15.057Z,84.60
2022-09-23T15:14:52.257Z,86.50
2022-09-23T15:17:34.053Z,86.20
2022-09-23T15:20:06.454Z,86.20
2022-09-23T15:22:44.108Z,84.90
2022-09-23T15:25:19.027Z,87.60
2022-09-23T15:28:05.899Z,89.60
2022-09-23T15:30:59.786Z,90.30
2022-09-23T15:33:29.917Z,91.20
2022-09-23T15:35:58.992Z,92.40
2022-09-23T15:38:27.841Z,93.40
2022-09-23T15:40:57.544Z,95.00
2022-09-23T15:43:48.751Z,95.80
2022-09-23T15:46:20.276Z,96.40
2022-09-23T15:48:58.663Z,96.90
2022-09-23T15:51:28.222Z,97.00
2022-09-23T15:53:56.597Z,97.40
2022-09-23T15:56:27.036Z,97.30
2022-09-23T15:58:55.310Z,97.90
2022-09-23T16:01:27.772Z,97.90
2022-09-23T16:03:56.478Z,98.40
2022-09-23T16:06:25.990Z,99.10
2022-09-23T16:08:54.298Z,99.70
2022-09-23T16:11:26.416Z,99.90
2022-09-23T16:13:54.703Z,99.90
2022-09-23T16:16:23.137Z,99.90
2022-09-23T16:18:52.103Z,99.90
2022-09-23T16:21:22.161Z,99.90
2022-09-23T16:23:53.400Z,99.90
2022-09-23T16:26:24.258Z,99.90
2022-09-23T16:28:56.275Z,99.90
2022-09-23T16:31:27.132Z,99.90
2022-09-23T16:33:55.389Z,99.90
2022-09-23T16:36:25.943Z,99.90
2022-09-23T16:39:20.615Z,99.90
2022-09-23T16:41:49.026Z,99.90
2022-09-23T16:44:18.624Z,99.90
2022-09-23T16:46:46.824Z,99.90
2022-09-23T16:49:15.056Z,99.90
2022-09-23T16:51:43.422Z,99.90
2022-09-23T16:54:13.290Z,99.90
2022-09-23T16:56:44.310Z,99.90
2022-09-23T16:59:19.240Z,99.90
2022-09-23T17:02:04.761Z,99.90
2022-09-23T17:04:33.300Z,99.90
2022-09-23T17:07:01.995Z,99.90
2022-09-23T17:09:31.224Z,99.90
2022-09-23T17:12:07.760Z,99.90
2022-09-23T17:14:37.372Z,99.90
2022-09-23T17:17:06.476Z,99.90
2022-09-23T17:19:35.753Z,99.90
2022-09-23T17:22:03.942Z,99.90
2022-09-23T17:24:32.194Z,99.90
2022-09-23T17:27:00.415Z,99.90
2022-09-23T17:29:29.172Z,99.90
2022-09-23T17:31:59.174Z,99.90
2022-09-23T17:34:28.934Z,99.90
2022-09-23T17:36:57.164Z,99.90
2022-09-23T17:39:25.670Z,99.90
2022-09-23T17:41:58.518Z,99.90
2022-09-23T17:44:27.077Z,99.90
2022-09-23T17:46:55.315Z,99.90
2022-09-23T17:49:25.075Z,99.90
2022-09-23T17:51:53.339Z,99.90
2022-09-23T17:54:21.565Z,99.90
2022-09-23T17:56:49.823Z,99.90
2022-09-23T17:59:18.238Z,99.90
2022-09-23T18:01:46.517Z,99.90
2022-09-23T18:04:14.774Z,99.90
2022-09-23T18:06:44.364Z,99.90
2022-09-23T18:09:12.645Z,99.90
2022-09-23T18:11:42.724Z,99.90
2022-09-23T18:14:15.299Z,99.90
2022-09-23T18:16:45.607Z,99.90
2022-09-23T18:19:15.420Z,99.90
2022-09-23T18:21:46.825Z,99.90
2022-09-23T18:27:03.624Z,99.90
2022-09-23T18:29:33.589Z,99.90
2022-09-23T18:32:02.125Z,99.90
2022-09-23T18:34:30.402Z,99.90
2022-09-23T18:37:00.273Z,99.90
2022-09-23T18:39:29.290Z,99.90
2022-09-23T18:41:57.524Z,99.90
2022-09-23T18:44:25.855Z,99.90
2022-09-23T18:46:54.069Z,99.90
2022-09-23T18:49:39.812Z,99.90
2022-09-23T18:52:09.474Z,99.90
2022-09-23T18:54:37.702Z,99.90
2022-09-23T18:57:06.004Z,99.90
2022-09-23T18:59:34.198Z,99.90
2022-09-23T19:02:02.741Z,99.90
2022-09-23T19:04:31.140Z,99.90
2022-09-23T19:06:59.438Z,99.90
2022-09-23T19:09:29.082Z,99.90
2022-09-23T19:11:57.780Z,99.90
2022-09-23T19:14:26.697Z,99.90
2022-09-23T19:16:54.953Z,99.90
2022-09-23T19:19:23.219Z,99.90
2022-09-23T19:21:51.759Z,99.90
2022-09-23T19:24:21.066Z,99.90
2022-09-23T19:27:16.394Z,99.90
2022-09-23T19:29:47.438Z,99.90
2022-09-23T19:32:16.368Z,99.90
2022-09-23T19:34:45.884Z,99.90
2022-09-23T19:37:14.231Z,99.90
2022-09-23T19:39:42.446Z,99.90
2022-09-23T19:42:10.694Z,99.90
2022-09-23T19:44:41.047Z,99.90
2022-09-23T19:47:15.389Z,99.90
2022-09-23T19:49:44.046Z,99.90
2022-09-23T19:52:12.364Z,99.90
2022-09-23T19:54:40.556Z,99.90
2022-09-23T19:57:09.047Z,99.90
2022-09-23T19:59:38.535Z,99.90
2022-09-23T20:02:09.929Z,99.90
2022-09-23T20:04:38.281Z,99.90
2022-09-23T20:07:08.981Z,99.90
2022-09-23T20:09:37.191Z,99.90
2022-09-23T20:12:05.532Z,99.90
2022-09-23T20:14:33.851Z,99.90
2022-09-23T20:17:02.461Z,99.90
2022-09-23T20:19:32.232Z,99.90
2022-09-23T20:25:14.069Z,99.90
2022-09-23T20:27:41.477Z,99.90
2022-09-23T20:30:11.956Z,99.90
2022-09-23T20:32:44.474Z,99.90
2022-09-23T20:35:16.330Z,99.90
2022-09-23T20:37:44.693Z,99.90
2022-09-23T20:40:12.968Z,99.90
2022-09-23T20:42:41.258Z,99.90
2022-09-23T20:45:10.214Z,99.90
2022-09-23T20:47:38.451Z,99.90
2022-09-23T20:50:09.758Z,99.90
2022-09-23T20:52:39.378Z,99.90
2022-09-23T20:55:08.916Z,99.90
2022-09-23T20:57:37.154Z,99.90
2022-09-23T21:00:07.811Z,99.90
2022-09-23T21:02:36.659Z,99.90
2022-09-23T21:05:05.247Z,99.90
2022-09-23T21:07:33.441Z,99.90
2022-09-23T21:10:04.788Z,99.90
2022-09-23T21:12:33.056Z,99.90
2022-09-23T21:15:01.268Z,99.90
2022-09-23T21:17:29.554Z,99.90
2022-09-23T21:19:59.970Z,99.90
2022-09-23T21:22:28.221Z,99.90
2022-09-23T21:27:46.035Z,99.90
2022-09-23T21:30:14.921Z,99.90
2022-09-23T21:32:43.181Z,99.90
2022-09-23T21:35:11.443Z,99.90
2022-09-23T21:37:45.936Z,99.90
2022-09-23T21:40:31.742Z,99.90
2022-09-23T21:43:01.771Z,99.90
2022-09-23T21:45:31.613Z,99.90
2022-09-23T21:48:01.277Z,99.90
2022-09-23T21:50:55.295Z,99.90
2022-09-23T21:53:23.968Z,99.90
2022-09-23T21:56:20.665Z,99.90
2022-09-23T21:58:52.132Z,99.90
2022-09-23T22:01:22.385Z,99.90
2022-09-23T22:03:55.210Z,99.90
2022-09-23T22:06:26.861Z,99.90
2022-09-23T22:08:59.145Z,99.90
2022-09-23T22:11:46.854Z,99.90
2022-09-23T22:14:18.042Z,99.90
2022-09-23T22:16:46.801Z,99.90
2022-09-23T22:19:15.737Z,99.90
2022-09-23T22:21:45.513Z,99.90
2022-09-23T22:24:14.236Z,99.90
2022-09-23T22:26:43.908Z,99.90
2022-09-23T22:29:31.594Z,99.90
2022-09-23T22:32:19.479Z,99.90
2022-09-23T22:35:13.976Z,99.90
2022-09-23T22:37:42.166Z,99.90
2022-09-23T22:40:14.294Z,99.90
2022-09-23T22:42:43.473Z,99.90
2022-09-23T22:45:12.633Z,99.90
2022-09-23T22:47:45.248Z,99.90
2022-09-23T22:50:15.218Z,99.90
2022-09-23T22:53:04.122Z,99.90
2022-09-23T22:55:32.429Z,99.90
2022-09-23T22:58:15.363Z,99.90
2022-09-23T23:00:58.087Z,99.90
2022-09-23T23:03:27.843Z,99.90
2022-09-23T23:05:57.037Z,99.90
2022-09-23T23:08:27.165Z,99.90
2022-09-23T23:10:56.039Z,99.90
2022-09-23T23:13:32.225Z,99.90
2022-09-23T23:16:03.699Z,99.90
2022-09-23T23:18:35.095Z,99.90
2022-09-23T23:21:12.470Z,99.90
2022-09-23T23:23:42.481Z,99.90
2022-09-23T23:26:13.088Z,99.90
2022-09-23T23:28:41.832Z,99.90
2022-09-23T23:31:11.534Z,99.90
2022-09-23T23:33:42.074Z,99.90
2022-09-23T23:36:12.191Z,99.90
2022-09-23T23:38:42.304Z,99.90
2022-09-23T23:41:12.710Z,99.90
2022-09-23T23:43:41.520Z,99.90
2022-09-23T23:46:10.649Z,99.90
2022-09-23T23:48:41.815Z,99.90
2022-09-23T23:51:12.398Z,99.90
2022-09-23T23:53:41.865Z,99.90
2022-09-23T23:56:12.281Z,99.90
2022-09-23T23:58:41.205Z,99.90
